»·PEaware :: N921VN KGCN-KIFP

N921VN :: KGCN-KIFP

FLIGHT INFORMATION

Flight Status: Arrived
Operator: Privately registered:
United States
More flights under this callsign
Pilot: Kevin M. (7)
Aircraft: CESSNA 172 SKYHAWK
(C172)
More flights by this aircraft type
Origin: KGCN Grand Canyon Natl Park
United States
Destination: KIFP Laughlin/Bullhead Intl
United States
More flights between these airports :: More routes between these airports
Route:
File this flight plan on PilotEdge
Remarks:
Altitude:
(Current/Filed)
8,500ft
Speed:
(Current/Filed)
150kts
Departed: 11-Nov-20 02:41 PM
Arrived: 11-Nov-20 03:45 PM
Distance/Time
Traveled:
127nm/1:04
Distance/Time
To Go:
Arrived

Flight Plot

Page will automatically refresh every two minutes.

Flight plan parsing failed; only flown route is shown


Map Options




Map Legend


Flown Route
Filed Route
Departure Airport
Arrival Airport
Navaid (VOR, NDB)
Fix

Horizontal Profiles

Position Reports

Time Latitude Longitude Heading Altitude Ground
Speed
11-Nov-20 14:35 35.958463 -112.138389 45 6603ft 0kts
11-Nov-20 14:36 35.958463 -112.138389 45 6603ft 0kts
11-Nov-20 14:37 35.958463 -112.138389 45 6603ft 0kts
11-Nov-20 14:38 35.960779 -112.136357 21 6611ft 9kts
11-Nov-20 14:39 35.960933 -112.136346 349 6611ft 0kts
11-Nov-20 14:40 35.961361 -112.137531 219 6610ft 0kts
11-Nov-20 14:40 35.954232 -112.145004 219 6616ft 90kts
11-Nov-20 14:42 35.933034 -112.171620 233 7246ft 99kts
11-Nov-20 14:42 35.918679 -112.195096 233 7585ft 110kts
11-Nov-20 14:44 35.895656 -112.232768 233 7702ft 121kts
11-Nov-20 14:45 35.875853 -112.266510 249 7796ft 121kts
11-Nov-20 14:46 35.863965 -112.305381 249 7896ft 121kts
11-Nov-20 14:46 35.853983 -112.337839 249 7978ft 121kts
11-Nov-20 14:47 35.842034 -112.376713 249 8080ft 121kts
11-Nov-20 14:48 35.830109 -112.415525 249 8178ft 121kts
11-Nov-20 14:49 35.818203 -112.454304 249 8279ft 121kts
11-Nov-20 14:50 35.806310 -112.493057 249 8379ft 121kts
11-Nov-20 14:51 35.790730 -112.530441 239 8381ft 124kts
11-Nov-20 14:52 35.772892 -112.566948 239 8381ft 124kts
11-Nov-20 14:53 35.755083 -112.603478 239 8380ft 124kts
11-Nov-20 14:54 35.737342 -112.639936 239 8379ft 124kts
11-Nov-20 14:55 35.719867 -112.676613 240 8380ft 124kts
11-Nov-20 14:56 35.702671 -112.713536 240 8380ft 124kts
11-Nov-20 14:57 35.685454 -112.750532 240 8380ft 124kts
11-Nov-20 14:58 35.668309 -112.787398 240 8382ft 124kts
11-Nov-20 14:59 35.651537 -112.824594 241 8380ft 124kts
11-Nov-20 15:00 35.634893 -112.861948 241 8379ft 124kts
11-Nov-20 15:01 35.618324 -112.899140 241 8379ft 124kts
11-Nov-20 15:02 35.601685 -112.936488 241 8379ft 124kts
11-Nov-20 15:03 35.585139 -112.973642 241 8378ft 124kts
11-Nov-20 15:04 35.568520 -113.010971 241 8378ft 124kts
11-Nov-20 15:05 35.551982 -113.048143 241 8390ft 124kts
11-Nov-20 15:06 35.535333 -113.085550 241 8382ft 124kts
11-Nov-20 15:07 35.518714 -113.122893 241 8380ft 124kts
11-Nov-20 15:08 35.502128 -113.160170 241 8379ft 124kts
11-Nov-20 15:09 35.485597 -113.197324 241 8379ft 124kts
11-Nov-20 15:10 35.469027 -113.234567 241 8380ft 124kts
11-Nov-20 15:11 35.452463 -113.271813 241 8380ft 124kts
11-Nov-20 15:12 35.435859 -113.309143 241 8380ft 124kts
11-Nov-20 15:13 35.419347 -113.346277 241 8379ft 124kts
11-Nov-20 15:14 35.402797 -113.383507 241 8379ft 124kts
11-Nov-20 15:15 35.386248 -113.420730 241 8380ft 124kts
11-Nov-20 15:16 35.369676 -113.458018 241 8381ft 124kts
11-Nov-20 15:17 35.353085 -113.495364 241 8383ft 124kts
11-Nov-20 15:18 35.337089 -113.533059 245 8379ft 124kts
11-Nov-20 15:19 35.322245 -113.571273 244 8385ft 124kts
11-Nov-20 15:20 35.308356 -113.610263 249 8385ft 124kts
11-Nov-20 15:21 35.295740 -113.649813 249 8382ft 124kts
11-Nov-20 15:22 35.283160 -113.689214 249 8379ft 124kts
11-Nov-20 15:23 35.270581 -113.728586 248 8378ft 124kts
11-Nov-20 15:24 35.258009 -113.767909 249 8373ft 123kts
11-Nov-20 15:25 35.245422 -113.807292 249 8386ft 124kts
11-Nov-20 15:26 35.232773 -113.846861 249 8381ft 124kts
11-Nov-20 15:27 35.220195 -113.886196 248 8380ft 124kts
11-Nov-20 15:28 35.207599 -113.925610 249 8381ft 124kts
11-Nov-20 15:29 35.195001 -113.965031 249 8380ft 124kts
11-Nov-20 15:30 35.182422 -114.004405 249 8381ft 124kts
11-Nov-20 15:31 35.169818 -114.043854 249 8382ft 124kts
11-Nov-20 15:32 35.157810 -114.083452 251 8382ft 124kts
11-Nov-20 15:33 35.148959 -114.124214 261 8381ft 124kts
11-Nov-20 15:34 35.145709 -114.166169 268 8380ft 124kts
11-Nov-20 15:35 35.144645 -114.208296 268 8380ft 124kts
11-Nov-20 15:36 35.143550 -114.250517 268 8379ft 124kts
11-Nov-20 15:37 35.142438 -114.292632 268 8379ft 124kts
11-Nov-20 15:38 35.141313 -114.334881 268 8379ft 124kts
11-Nov-20 15:39 35.140763 -114.377671 257 7987ft 133kts
11-Nov-20 15:40 35.134820 -114.421451 262 6459ft 148kts
11-Nov-20 15:41 35.129147 -114.472946 263 4344ft 152kts
11-Nov-20 15:42 35.125841 -114.523948 267 2490ft 148kts
11-Nov-20 15:43 35.142822 -114.558475 356 775ft 130kts
11-Nov-20 15:44 35.156036 -114.558240 99 665ft 5kts

Navigation Log

Ident Type
Flight plan parsing failed, navigation log unavailable